sensor_id;sensor_type;location;lat;lon;timestamp;P1;durP1;ratioP1;P2;durP2;ratioP2
35646;SDS011;28680;45.642;13.756;2024-01-30T00:33:54;15.40;;;8.63;;
35646;SDS011;28680;45.642;13.756;2024-01-30T00:36:20;14.93;;;7.80;;
35646;SDS011;28680;45.642;13.756;2024-01-30T00:38:46;15.60;;;8.27;;
35646;SDS011;28680;45.642;13.756;2024-01-30T00:41:12;14.48;;;7.90;;
35646;SDS011;28680;45.642;13.756;2024-01-30T00:43:38;15.35;;;7.80;;
35646;SDS011;28680;45.642;13.756;2024-01-30T00:46:04;16.52;;;7.82;;
35646;SDS011;28680;45.642;13.756;2024-01-30T00:48:30;14.75;;;7.53;;
35646;SDS011;28680;45.642;13.756;2024-01-30T00:50:56;17.40;;;8.45;;
35646;SDS011;28680;45.642;13.756;2024-01-30T00:53:22;14.20;;;7.38;;
35646;SDS011;28680;45.642;13.756;2024-01-30T00:55:47;13.02;;;7.30;;
35646;SDS011;28680;45.642;13.756;2024-01-30T00:58:13;13.07;;;7.45;;
35646;SDS011;28680;45.642;13.756;2024-01-30T01:00:39;14.18;;;7.60;;
35646;SDS011;28680;45.642;13.756;2024-01-30T01:03:05;16.08;;;7.57;;
35646;SDS011;28680;45.642;13.756;2024-01-30T01:05:31;16.98;;;8.38;;
35646;SDS011;28680;45.642;13.756;2024-01-30T01:07:57;16.15;;;8.02;;
35646;SDS011;28680;45.642;13.756;2024-01-30T01:10:22;16.63;;;8.48;;
35646;SDS011;28680;45.642;13.756;2024-01-30T01:12:48;17.40;;;8.00;;
35646;SDS011;28680;45.642;13.756;2024-01-30T01:15:15;20.85;;;9.25;;
35646;SDS011;28680;45.642;13.756;2024-01-30T01:17:41;19.80;;;8.93;;
35646;SDS011;28680;45.642;13.756;2024-01-30T01:20:07;20.50;;;9.57;;
35646;SDS011;28680;45.642;13.756;2024-01-30T01:22:33;19.33;;;8.88;;
35646;SDS011;28680;45.642;13.756;2024-01-30T01:25:00;18.17;;;9.73;;
35646;SDS011;28680;45.642;13.756;2024-01-30T01:27:26;16.13;;;9.32;;
35646;SDS011;28680;45.642;13.756;2024-01-30T01:29:52;19.42;;;9.52;;
35646;SDS011;28680;45.642;13.756;2024-01-30T01:32:18;19.98;;;9.05;;
35646;SDS011;28680;45.642;13.756;2024-01-30T01:34:45;18.02;;;10.00;;
35646;SDS011;28680;45.642;13.756;2024-01-30T01:37:10;18.25;;;9.57;;
35646;SDS011;28680;45.642;13.756;2024-01-30T01:39:36;21.00;;;9.23;;
35646;SDS011;28680;45.642;13.756;2024-01-30T01:42:02;15.38;;;9.10;;
35646;SDS011;28680;45.642;13.756;2024-01-30T01:44:28;17.13;;;8.82;;
35646;SDS011;28680;45.642;13.756;2024-01-30T01:46:54;20.10;;;9.77;;
35646;SDS011;28680;45.642;13.756;2024-01-30T01:49:20;19.40;;;10.18;;
35646;SDS011;28680;45.642;13.756;2024-01-30T01:51:49;19.48;;;9.75;;
35646;SDS011;28680;45.642;13.756;2024-01-30T01:54:17;19.75;;;9.90;;
35646;SDS011;28680;45.642;13.756;2024-01-30T01:56:43;19.00;;;10.20;;
35646;SDS011;28680;45.642;13.756;2024-01-30T01:59:09;17.40;;;10.07;;
35646;SDS011;28680;45.642;13.756;2024-01-30T02:01:38;16.65;;;9.63;;
35646;SDS011;28680;45.642;13.756;2024-01-30T02:04:06;20.45;;;9.98;;
35646;SDS011;28680;45.642;13.756;2024-01-30T02:06:34;17.15;;;9.40;;
35646;SDS011;28680;45.642;13.756;2024-01-30T02:09:00;17.33;;;9.45;;
35646;SDS011;28680;45.642;13.756;2024-01-30T02:11:26;20.05;;;10.13;;
35646;SDS011;28680;45.642;13.756;2024-01-30T02:13:53;18.17;;;9.73;;
35646;SDS011;28680;45.642;13.756;2024-01-30T02:16:19;21.63;;;9.05;;
35646;SDS011;28680;45.642;13.756;2024-01-30T02:18:44;17.42;;;9.80;;
35646;SDS011;28680;45.642;13.756;2024-01-30T02:21:13;19.52;;;9.90;;
35646;SDS011;28680;45.642;13.756;2024-01-30T02:23:43;20.30;;;10.10;;
35646;SDS011;28680;45.642;13.756;2024-01-30T02:26:10;19.50;;;9.63;;
35646;SDS011;28680;45.642;13.756;2024-01-30T02:28:37;19.15;;;10.70;;
35646;SDS011;28680;45.642;13.756;2024-01-30T02:31:03;21.38;;;10.48;;
35646;SDS011;28680;45.642;13.756;2024-01-30T02:33:29;18.52;;;10.35;;
35646;SDS011;28680;45.642;13.756;2024-01-30T02:35:55;16.58;;;9.90;;
35646;SDS011;28680;45.642;13.756;2024-01-30T02:38:21;16.38;;;8.93;;
35646;SDS011;28680;45.642;13.756;2024-01-30T02:40:48;17.27;;;9.77;;
35646;SDS011;28680;45.642;13.756;2024-01-30T02:43:15;20.88;;;10.40;;
35646;SDS011;28680;45.642;13.756;2024-01-30T02:45:41;17.35;;;9.85;;
35646;SDS011;28680;45.642;13.756;2024-01-30T02:48:07;23.27;;;10.77;;
35646;SDS011;28680;45.642;13.756;2024-01-30T02:50:33;19.15;;;9.75;;
35646;SDS011;28680;45.642;13.756;2024-01-30T02:52:59;20.33;;;10.35;;
35646;SDS011;28680;45.642;13.756;2024-01-30T02:55:25;18.70;;;10.07;;
35646;SDS011;28680;45.642;13.756;2024-01-30T02:57:51;21.48;;;10.32;;
35646;SDS011;28680;45.642;13.756;2024-01-30T03:00:17;19.67;;;10.35;;
35646;SDS011;28680;45.642;13.756;2024-01-30T03:02:44;18.20;;;9.90;;
35646;SDS011;28680;45.642;13.756;2024-01-30T03:05:10;17.10;;;10.15;;
35646;SDS011;28680;45.642;13.756;2024-01-30T03:07:36;16.63;;;10.00;;
35646;SDS011;28680;45.642;13.756;2024-01-30T03:10:02;17.52;;;10.02;;
35646;SDS011;28680;45.642;13.756;2024-01-30T03:12:29;18.05;;;10.32;;
35646;SDS011;28680;45.642;13.756;2024-01-30T03:14:55;17.75;;;9.50;;
35646;SDS011;28680;45.642;13.756;2024-01-30T03:17:21;16.55;;;9.98;;
35646;SDS011;28680;45.642;13.756;2024-01-30T03:19:47;16.00;;;9.48;;
35646;SDS011;28680;45.642;13.756;2024-01-30T03:22:13;17.38;;;9.85;;
35646;SDS011;28680;45.642;13.756;2024-01-30T03:24:38;17.65;;;9.85;;
35646;SDS011;28680;45.642;13.756;2024-01-30T03:27:04;17.63;;;9.30;;
35646;SDS011;28680;45.642;13.756;2024-01-30T03:29:30;15.93;;;9.40;;
35646;SDS011;28680;45.642;13.756;2024-01-30T03:31:56;18.95;;;9.90;;
35646;SDS011;28680;45.642;13.756;2024-01-30T03:34:21;18.48;;;10.40;;
35646;SDS011;28680;45.642;13.756;2024-01-30T03:36:47;16.02;;;9.55;;
35646;SDS011;28680;45.642;13.756;2024-01-30T03:39:13;17.90;;;10.05;;
35646;SDS011;28680;45.642;13.756;2024-01-30T03:41:41;19.42;;;10.85;;
35646;SDS011;28680;45.642;13.756;2024-01-30T03:44:08;16.50;;;9.77;;
35646;SDS011;28680;45.642;13.756;2024-01-30T03:46:34;19.88;;;10.18;;
35646;SDS011;28680;45.642;13.756;2024-01-30T03:48:59;19.92;;;11.07;;
35646;SDS011;28680;45.642;13.756;2024-01-30T03:51:25;18.55;;;9.60;;
35646;SDS011;28680;45.642;13.756;2024-01-30T03:53:51;17.10;;;9.55;;
35646;SDS011;28680;45.642;13.756;2024-01-30T03:56:17;17.80;;;9.90;;
35646;SDS011;28680;45.642;13.756;2024-01-30T03:58:43;21.05;;;9.68;;
35646;SDS011;28680;45.642;13.756;2024-01-30T04:01:12;20.17;;;10.05;;
35646;SDS011;28680;45.642;13.756;2024-01-30T04:03:39;21.05;;;9.68;;
35646;SDS011;28680;45.642;13.756;2024-01-30T04:06:05;16.88;;;9.55;;
35646;SDS011;28680;45.642;13.756;2024-01-30T04:08:30;20.40;;;10.63;;
35646;SDS011;28680;45.642;13.756;2024-01-30T04:10:56;16.70;;;9.15;;
35646;SDS011;28680;45.642;13.756;2024-01-30T04:13:22;21.17;;;9.88;;
35646;SDS011;28680;45.642;13.756;2024-01-30T04:15:48;19.05;;;9.38;;
35646;SDS011;28680;45.642;13.756;2024-01-30T04:18:13;18.23;;;9.45;;
35646;SDS011;28680;45.642;13.756;2024-01-30T04:20:39;17.08;;;9.63;;
35646;SDS011;28680;45.642;13.756;2024-01-30T04:23:05;16.63;;;8.98;;
35646;SDS011;28680;45.642;13.756;2024-01-30T04:25:31;16.17;;;9.43;;
35646;SDS011;28680;45.642;13.756;2024-01-30T04:27:57;19.95;;;9.60;;
35646;SDS011;28680;45.642;13.756;2024-01-30T04:30:23;20.67;;;9.43;;
35646;SDS011;28680;45.642;13.756;2024-01-30T04:32:48;18.35;;;9.23;;
35646;SDS011;28680;45.642;13.756;2024-01-30T04:35:14;15.23;;;8.27;;
35646;SDS011;28680;45.642;13.756;2024-01-30T04:37:40;16.77;;;8.88;;
35646;SDS011;28680;45.642;13.756;2024-01-30T04:40:06;17.23;;;9.02;;
35646;SDS011;28680;45.642;13.756;2024-01-30T04:42:32;16.67;;;8.25;;
35646;SDS011;28680;45.642;13.756;2024-01-30T04:44:58;15.70;;;8.52;;
35646;SDS011;28680;45.642;13.756;2024-01-30T04:47:23;16.23;;;8.95;;
35646;SDS011;28680;45.642;13.756;2024-01-30T04:49:51;15.57;;;9.15;;
35646;SDS011;28680;45.642;13.756;2024-01-30T04:52:17;17.35;;;8.88;;
35646;SDS011;28680;45.642;13.756;2024-01-30T04:54:42;18.25;;;8.50;;
35646;SDS011;28680;45.642;13.756;2024-01-30T04:57:08;15.30;;;8.18;;
35646;SDS011;28680;45.642;13.756;2024-01-30T04:59:37;14.55;;;8.20;;
35646;SDS011;28680;45.642;13.756;2024-01-30T05:02:03;15.00;;;7.95;;
35646;SDS011;28680;45.642;13.756;2024-01-30T05:04:30;16.30;;;7.70;;
35646;SDS011;28680;45.642;13.756;2024-01-30T05:06:56;14.35;;;8.07;;
35646;SDS011;28680;45.642;13.756;2024-01-30T05:09:21;18.88;;;8.68;;
35646;SDS011;28680;45.642;13.756;2024-01-30T05:11:47;16.55;;;8.48;;
35646;SDS011;28680;45.642;13.756;2024-01-30T05:14:13;17.33;;;8.27;;
35646;SDS011;28680;45.642;13.756;2024-01-30T05:16:40;15.63;;;8.68;;
35646;SDS011;28680;45.642;13.756;2024-01-30T05:19:08;18.30;;;8.82;;
35646;SDS011;28680;45.642;13.756;2024-01-30T05:21:33;18.27;;;9.05;;
35646;SDS011;28680;45.642;13.756;2024-01-30T05:24:00;15.85;;;8.77;;
35646;SDS011;28680;45.642;13.756;2024-01-30T05:26:25;17.75;;;8.95;;
35646;SDS011;28680;45.642;13.756;2024-01-30T05:28:51;19.00;;;8.98;;
35646;SDS011;28680;45.642;13.756;2024-01-30T05:31:17;16.02;;;8.52;;
35646;SDS011;28680;45.642;13.756;2024-01-30T05:33:43;15.82;;;8.32;;
35646;SDS011;28680;45.642;13.756;2024-01-30T05:36:11;16.83;;;8.50;;
35646;SDS011;28680;45.642;13.756;2024-01-30T05:38:38;15.50;;;8.55;;
35646;SDS011;28680;45.642;13.756;2024-01-30T05:41:04;13.25;;;8.45;;
35646;SDS011;28680;45.642;13.756;2024-01-30T05:43:30;18.00;;;8.48;;
35646;SDS011;28680;45.642;13.756;2024-01-30T05:45:56;18.35;;;8.95;;
35646;SDS011;28680;45.642;13.756;2024-01-30T05:48:21;16.45;;;8.60;;
35646;SDS011;28680;45.642;13.756;2024-01-30T05:50:47;16.33;;;8.65;;
35646;SDS011;28680;45.642;13.756;2024-01-30T05:53:13;17.80;;;8.45;;
35646;SDS011;28680;45.642;13.756;2024-01-30T05:55:39;15.23;;;8.30;;
35646;SDS011;28680;45.642;13.756;2024-01-30T05:58:04;16.65;;;8.50;;
35646;SDS011;28680;45.642;13.756;2024-01-30T06:00:30;14.60;;;8.73;;
35646;SDS011;28680;45.642;13.756;2024-01-30T06:02:56;20.45;;;9.65;;
35646;SDS011;28680;45.642;13.756;2024-01-30T06:05:22;17.48;;;8.82;;
35646;SDS011;28680;45.642;13.756;2024-01-30T06:07:47;15.02;;;7.82;;
35646;SDS011;28680;45.642;13.756;2024-01-30T06:10:13;16.60;;;7.97;;
35646;SDS011;28680;45.642;13.756;2024-01-30T06:12:39;18.02;;;8.55;;
35646;SDS011;28680;45.642;13.756;2024-01-30T06:15:06;17.40;;;9.13;;
35646;SDS011;28680;45.642;13.756;2024-01-30T06:17:32;17.02;;;8.80;;
35646;SDS011;28680;45.642;13.756;2024-01-30T06:19:58;16.27;;;8.73;;
35646;SDS011;28680;45.642;13.756;2024-01-30T06:22:24;15.95;;;8.15;;
35646;SDS011;28680;45.642;13.756;2024-01-30T06:24:50;16.60;;;8.48;;
35646;SDS011;28680;45.642;13.756;2024-01-30T06:27:16;15.43;;;8.98;;
35646;SDS011;28680;45.642;13.756;2024-01-30T06:29:42;14.95;;;9.25;;
35646;SDS011;28680;45.642;13.756;2024-01-30T06:32:08;17.75;;;8.25;;
35646;SDS011;28680;45.642;13.756;2024-01-30T06:34:34;13.40;;;7.65;;
35646;SDS011;28680;45.642;13.756;2024-01-30T06:37:00;15.70;;;8.35;;
35646;SDS011;28680;45.642;13.756;2024-01-30T06:39:26;15.48;;;8.32;;
35646;SDS011;28680;45.642;13.756;2024-01-30T06:41:52;19.75;;;9.60;;
35646;SDS011;28680;45.642;13.756;2024-01-30T06:44:18;19.48;;;7.95;;
35646;SDS011;28680;45.642;13.756;2024-01-30T06:46:44;16.20;;;8.32;;
35646;SDS011;28680;45.642;13.756;2024-01-30T06:49:09;18.50;;;9.25;;
35646;SDS011;28680;45.642;13.756;2024-01-30T06:51:35;20.90;;;12.35;;
35646;SDS011;28680;45.642;13.756;2024-01-30T06:54:01;17.02;;;9.00;;
35646;SDS011;28680;45.642;13.756;2024-01-30T06:56:27;20.33;;;11.70;;
35646;SDS011;28680;45.642;13.756;2024-01-30T06:58:53;18.25;;;10.30;;
35646;SDS011;28680;45.642;13.756;2024-01-30T07:01:19;17.73;;;10.13;;
35646;SDS011;28680;45.642;13.756;2024-01-30T07:03:45;16.55;;;8.52;;
35646;SDS011;28680;45.642;13.756;2024-01-30T07:06:11;17.30;;;8.38;;
35646;SDS011;28680;45.642;13.756;2024-01-30T07:08:37;18.75;;;8.23;;
35646;SDS011;28680;45.642;13.756;2024-01-30T07:11:06;16.95;;;8.27;;
35646;SDS011;28680;45.642;13.756;2024-01-30T07:13:33;22.10;;;8.98;;
35646;SDS011;28680;45.642;13.756;2024-01-30T07:15:59;16.25;;;8.82;;
35646;SDS011;28680;45.642;13.756;2024-01-30T07:18:25;15.68;;;7.93;;
35646;SDS011;28680;45.642;13.756;2024-01-30T07:20:51;14.77;;;7.45;;
35646;SDS011;28680;45.642;13.756;2024-01-30T07:23:17;17.52;;;8.57;;
35646;SDS011;28680;45.642;13.756;2024-01-30T07:25:43;13.68;;;8.20;;
35646;SDS011;28680;45.642;13.756;2024-01-30T07:28:11;18.88;;;8.80;;
35646;SDS011;28680;45.642;13.756;2024-01-30T07:30:37;18.25;;;8.27;;
35646;SDS011;28680;45.642;13.756;2024-01-30T07:33:04;17.83;;;8.93;;
35646;SDS011;28680;45.642;13.756;2024-01-30T07:35:30;16.85;;;7.60;;
35646;SDS011;28680;45.642;13.756;2024-01-30T07:37:56;23.05;;;8.73;;
35646;SDS011;28680;45.642;13.756;2024-01-30T07:40:22;16.95;;;8.70;;
35646;SDS011;28680;45.642;13.756;2024-01-30T07:42:49;16.15;;;8.05;;
35646;SDS011;28680;45.642;13.756;2024-01-30T07:45:15;16.40;;;7.68;;
35646;SDS011;28680;45.642;13.756;2024-01-30T07:47:40;17.40;;;7.95;;
35646;SDS011;28680;45.642;13.756;2024-01-30T07:50:07;16.92;;;7.15;;
35646;SDS011;28680;45.642;13.756;2024-01-30T07:52:34;13.05;;;7.78;;
35646;SDS011;28680;45.642;13.756;2024-01-30T07:55:00;17.73;;;7.55;;
35646;SDS011;28680;45.642;13.756;2024-01-30T07:57:26;15.68;;;6.68;;
35646;SDS011;28680;45.642;13.756;2024-01-30T07:59:52;15.43;;;7.25;;
35646;SDS011;28680;45.642;13.756;2024-01-30T08:02:18;20.55;;;7.85;;
35646;SDS011;28680;45.642;13.756;2024-01-30T08:04:44;20.42;;;7.75;;
35646;SDS011;28680;45.642;13.756;2024-01-30T08:07:13;15.80;;;7.60;;
35646;SDS011;28680;45.642;13.756;2024-01-30T08:09:39;18.13;;;7.40;;
35646;SDS011;28680;45.642;13.756;2024-01-30T08:12:05;16.70;;;7.60;;
35646;SDS011;28680;45.642;13.756;2024-01-30T08:14:31;16.23;;;7.53;;
35646;SDS011;28680;45.642;13.756;2024-01-30T08:16:57;14.82;;;7.47;;
35646;SDS011;28680;45.642;13.756;2024-01-30T08:19:22;16.55;;;9.02;;
35646;SDS011;28680;45.642;13.756;2024-01-30T08:21:48;16.42;;;8.07;;
35646;SDS011;28680;45.642;13.756;2024-01-30T08:24:14;15.85;;;7.95;;
35646;SDS011;28680;45.642;13.756;2024-01-30T08:26:40;15.32;;;7.90;;
35646;SDS011;28680;45.642;13.756;2024-01-30T08:29:05;13.13;;;7.25;;
35646;SDS011;28680;45.642;13.756;2024-01-30T08:31:31;16.38;;;8.70;;
35646;SDS011;28680;45.642;13.756;2024-01-30T08:33:57;14.48;;;7.93;;
35646;SDS011;28680;45.642;13.756;2024-01-30T08:36:25;11.00;;;5.40;;
35646;SDS011;28680;45.642;13.756;2024-01-30T08:38:53;8.35;;;4.80;;
35646;SDS011;28680;45.642;13.756;2024-01-30T08:41:19;9.70;;;5.50;;
35646;SDS011;28680;45.642;13.756;2024-01-30T08:43:45;13.30;;;7.00;;
35646;SDS011;28680;45.642;13.756;2024-01-30T08:46:11;16.17;;;7.80;;
35646;SDS011;28680;45.642;13.756;2024-01-30T08:48:37;8.90;;;5.22;;
35646;SDS011;28680;45.642;13.756;2024-01-30T08:51:03;10.68;;;6.00;;
35646;SDS011;28680;45.642;13.756;2024-01-30T08:53:29;8.90;;;4.25;;
35646;SDS011;28680;45.642;13.756;2024-01-30T08:55:54;9.55;;;5.05;;
35646;SDS011;28680;45.642;13.756;2024-01-30T08:58:20;16.13;;;7.47;;
35646;SDS011;28680;45.642;13.756;2024-01-30T09:00:46;14.95;;;7.70;;
35646;SDS011;28680;45.642;13.756;2024-01-30T09:03:12;11.52;;;6.40;;
35646;SDS011;28680;45.642;13.756;2024-01-30T09:05:41;11.68;;;7.30;;
35646;SDS011;28680;45.642;13.756;2024-01-30T09:08:07;8.65;;;5.35;;
35646;SDS011;28680;45.642;13.756;2024-01-30T09:10:32;9.00;;;5.32;;
35646;SDS011;28680;45.642;13.756;2024-01-30T09:12:58;10.07;;;6.10;;
35646;SDS011;28680;45.642;13.756;2024-01-30T09:15:24;13.25;;;7.63;;
35646;SDS011;28680;45.642;13.756;2024-01-30T09:17:50;9.55;;;5.43;;
35646;SDS011;28680;45.642;13.756;2024-01-30T09:20:15;15.82;;;6.80;;
35646;SDS011;28680;45.642;13.756;2024-01-30T09:22:41;15.85;;;6.57;;
35646;SDS011;28680;45.642;13.756;2024-01-30T09:25:07;14.18;;;7.28;;
35646;SDS011;28680;45.642;13.756;2024-01-30T09:27:33;13.65;;;7.30;;
35646;SDS011;28680;45.642;13.756;2024-01-30T09:29:58;13.10;;;6.03;;
35646;SDS011;28680;45.642;13.756;2024-01-30T09:32:24;8.55;;;5.25;;
35646;SDS011;28680;45.642;13.756;2024-01-30T09:34:50;8.75;;;5.15;;
35646;SDS011;28680;45.642;13.756;2024-01-30T09:37:16;10.68;;;7.00;;
35646;SDS011;28680;45.642;13.756;2024-01-30T09:39:43;12.38;;;6.28;;
35646;SDS011;28680;45.642;13.756;2024-01-30T09:42:16;10.35;;;6.65;;
35646;SDS011;28680;45.642;13.756;2024-01-30T09:44:50;14.60;;;6.95;;
35646;SDS011;28680;45.642;13.756;2024-01-30T09:47:19;13.77;;;6.63;;
35646;SDS011;28680;45.642;13.756;2024-01-30T09:49:45;11.13;;;6.38;;
35646;SDS011;28680;45.642;13.756;2024-01-30T09:52:11;18.38;;;7.30;;
35646;SDS011;28680;45.642;13.756;2024-01-30T09:54:38;13.35;;;6.45;;
35646;SDS011;28680;45.642;13.756;2024-01-30T09:57:04;10.20;;;5.68;;
35646;SDS011;28680;45.642;13.756;2024-01-30T09:59:30;14.38;;;7.18;;
35646;SDS011;28680;45.642;13.756;2024-01-30T10:01:57;14.63;;;6.75;;
35646;SDS011;28680;45.642;13.756;2024-01-30T10:04:23;12.48;;;7.13;;
35646;SDS011;28680;45.642;13.756;2024-01-30T10:06:49;11.15;;;7.00;;
35646;SDS011;28680;45.642;13.756;2024-01-30T10:09:16;14.10;;;7.07;;
35646;SDS011;28680;45.642;13.756;2024-01-30T10:11:42;13.23;;;6.47;;
35646;SDS011;28680;45.642;13.756;2024-01-30T10:14:08;10.48;;;6.57;;
35646;SDS011;28680;45.642;13.756;2024-01-30T10:16:35;13.57;;;6.43;;
35646;SDS011;28680;45.642;13.756;2024-01-30T10:19:01;9.90;;;6.22;;
35646;SDS011;28680;45.642;13.756;2024-01-30T10:21:28;12.40;;;6.10;;
35646;SDS011;28680;45.642;13.756;2024-01-30T10:23:55;8.93;;;5.97;;
35646;SDS011;28680;45.642;13.756;2024-01-30T10:26:21;10.15;;;6.05;;
35646;SDS011;28680;45.642;13.756;2024-01-30T10:28:47;11.13;;;5.85;;
35646;SDS011;28680;45.642;13.756;2024-01-30T10:31:17;10.65;;;6.35;;
35646;SDS011;28680;45.642;13.756;2024-01-30T10:33:44;9.00;;;5.72;;
35646;SDS011;28680;45.642;13.756;2024-01-30T10:36:11;12.90;;;6.50;;
35646;SDS011;28680;45.642;13.756;2024-01-30T10:38:40;10.90;;;6.72;;
35646;SDS011;28680;45.642;13.756;2024-01-30T10:41:08;11.13;;;6.28;;
35646;SDS011;28680;45.642;13.756;2024-01-30T10:43:40;11.63;;;5.65;;
35646;SDS011;28680;45.642;13.756;2024-01-30T10:46:26;10.20;;;5.95;;
35646;SDS011;28680;45.642;13.756;2024-01-30T10:48:58;14.25;;;6.00;;
35646;SDS011;28680;45.642;13.756;2024-01-30T10:51:27;12.38;;;6.40;;
35646;SDS011;28680;45.642;13.756;2024-01-30T10:53:53;10.32;;;5.97;;
35646;SDS011;28680;45.642;13.756;2024-01-30T10:56:21;10.95;;;6.20;;
35646;SDS011;28680;45.642;13.756;2024-01-30T10:58:53;9.95;;;6.13;;
35646;SDS011;28680;45.642;13.756;2024-01-30T11:01:21;9.70;;;6.35;;
35646;SDS011;28680;45.642;13.756;2024-01-30T11:03:49;12.27;;;6.20;;
35646;SDS011;28680;45.642;13.756;2024-01-30T11:06:17;11.20;;;6.07;;
35646;SDS011;28680;45.642;13.756;2024-01-30T11:08:45;11.32;;;5.72;;
35646;SDS011;28680;45.642;13.756;2024-01-30T11:11:11;17.77;;;5.90;;
35646;SDS011;28680;45.642;13.756;2024-01-30T11:13:37;18.42;;;6.32;;
35646;SDS011;28680;45.642;13.756;2024-01-30T11:16:03;14.02;;;6.57;;
35646;SDS011;28680;45.642;13.756;2024-01-30T11:18:30;17.77;;;6.05;;
35646;SDS011;28680;45.642;13.756;2024-01-30T11:21:00;13.10;;;6.82;;
35646;SDS011;28680;45.642;13.756;2024-01-30T11:23:29;11.15;;;7.07;;
35646;SDS011;28680;45.642;13.756;2024-01-30T11:25:56;11.77;;;6.22;;
35646;SDS011;28680;45.642;13.756;2024-01-30T11:28:22;9.50;;;5.78;;
35646;SDS011;28680;45.642;13.756;2024-01-30T11:30:48;10.95;;;5.82;;
35646;SDS011;28680;45.642;13.756;2024-01-30T11:33:27;12.15;;;6.53;;
35646;SDS011;28680;45.642;13.756;2024-01-30T11:35:56;9.00;;;5.75;;
35646;SDS011;28680;45.642;13.756;2024-01-30T11:38:22;10.77;;;6.43;;
35646;SDS011;28680;45.642;13.756;2024-01-30T11:40:52;13.57;;;6.78;;
35646;SDS011;28680;45.642;13.756;2024-01-30T11:43:19;13.82;;;6.25;;
35646;SDS011;28680;45.642;13.756;2024-01-30T11:45:45;13.07;;;5.45;;
35646;SDS011;28680;45.642;13.756;2024-01-30T11:48:12;11.40;;;6.45;;
35646;SDS011;28680;45.642;13.756;2024-01-30T11:50:38;12.70;;;5.85;;
35646;SDS011;28680;45.642;13.756;2024-01-30T11:53:05;13.10;;;6.28;;
35646;SDS011;28680;45.642;13.756;2024-01-30T11:55:33;10.38;;;5.78;;
35646;SDS011;28680;45.642;13.756;2024-01-30T11:58:02;9.30;;;5.78;;
35646;SDS011;28680;45.642;13.756;2024-01-30T12:00:29;12.10;;;5.90;;
35646;SDS011;28680;45.642;13.756;2024-01-30T12:02:56;10.43;;;5.18;;
35646;SDS011;28680;45.642;13.756;2024-01-30T12:05:22;10.70;;;5.75;;
35646;SDS011;28680;45.642;13.756;2024-01-30T12:07:48;16.55;;;6.43;;
35646;SDS011;28680;45.642;13.756;2024-01-30T12:10:15;8.02;;;5.60;;
35646;SDS011;28680;45.642;13.756;2024-01-30T12:12:43;10.27;;;6.35;;
35646;SDS011;28680;45.642;13.756;2024-01-30T12:15:10;12.85;;;5.95;;
35646;SDS011;28680;45.642;13.756;2024-01-30T12:17:36;9.82;;;6.03;;
35646;SDS011;28680;45.642;13.756;2024-01-30T12:20:13;10.75;;;6.10;;
35646;SDS011;28680;45.642;13.756;2024-01-30T12:22:41;9.52;;;5.82;;
35646;SDS011;28680;45.642;13.756;2024-01-30T12:25:11;12.00;;;5.93;;
35646;SDS011;28680;45.642;13.756;2024-01-30T12:27:38;11.63;;;6.38;;
35646;SDS011;28680;45.642;13.756;2024-01-30T12:30:08;9.68;;;5.85;;
35646;SDS011;28680;45.642;13.756;2024-01-30T12:32:35;12.48;;;5.70;;
35646;SDS011;28680;45.642;13.756;2024-01-30T12:35:02;8.90;;;5.47;;
35646;SDS011;28680;45.642;13.756;2024-01-30T12:37:29;9.45;;;5.50;;
35646;SDS011;28680;45.642;13.756;2024-01-30T12:39:56;13.52;;;5.93;;
35646;SDS011;28680;45.642;13.756;2024-01-30T12:42:22;12.68;;;6.78;;
35646;SDS011;28680;45.642;13.756;2024-01-30T12:44:48;12.13;;;8.80;;
35646;SDS011;28680;45.642;13.756;2024-01-30T12:47:15;10.60;;;5.72;;
35646;SDS011;28680;45.642;13.756;2024-01-30T12:49:44;15.05;;;7.78;;
35646;SDS011;28680;45.642;13.756;2024-01-30T12:52:10;12.43;;;6.70;;
35646;SDS011;28680;45.642;13.756;2024-01-30T12:54:37;11.00;;;6.20;;
35646;SDS011;28680;45.642;13.756;2024-01-30T12:57:03;11.00;;;5.88;;
35646;SDS011;28680;45.642;13.756;2024-01-30T12:59:30;17.27;;;9.15;;
35646;SDS011;28680;45.642;13.756;2024-01-30T13:01:55;7.85;;;5.13;;
35646;SDS011;28680;45.642;13.756;2024-01-30T13:04:22;9.00;;;5.63;;
35646;SDS011;28680;45.642;13.756;2024-01-30T13:06:48;10.68;;;6.20;;
35646;SDS011;28680;45.642;13.756;2024-01-30T13:09:14;10.20;;;5.82;;
35646;SDS011;28680;45.642;13.756;2024-01-30T13:11:41;10.90;;;5.80;;
35646;SDS011;28680;45.642;13.756;2024-01-30T13:14:06;10.10;;;6.25;;
35646;SDS011;28680;45.642;13.756;2024-01-30T13:16:32;10.45;;;5.75;;
35646;SDS011;28680;45.642;13.756;2024-01-30T13:18:58;10.63;;;6.40;;
35646;SDS011;28680;45.642;13.756;2024-01-30T13:21:26;15.57;;;7.03;;
35646;SDS011;28680;45.642;13.756;2024-01-30T13:23:51;16.70;;;7.18;;
35646;SDS011;28680;45.642;13.756;2024-01-30T13:26:19;13.77;;;7.10;;
35646;SDS011;28680;45.642;13.756;2024-01-30T13:28:47;13.07;;;8.73;;
35646;SDS011;28680;45.642;13.756;2024-01-30T13:31:14;11.35;;;7.05;;
35646;SDS011;28680;45.642;13.756;2024-01-30T13:33:40;29.05;;;23.33;;
35646;SDS011;28680;45.642;13.756;2024-01-30T13:36:07;15.30;;;13.50;;
35646;SDS011;28680;45.642;13.756;2024-01-30T13:38:37;11.77;;;6.40;;
35646;SDS011;28680;45.642;13.756;2024-01-30T13:41:04;11.52;;;6.30;;
35646;SDS011;28680;45.642;13.756;2024-01-30T13:43:30;10.65;;;6.40;;
35646;SDS011;28680;45.642;13.756;2024-01-30T13:45:56;10.45;;;5.53;;
35646;SDS011;28680;45.642;13.756;2024-01-30T13:48:21;11.20;;;5.70;;
35646;SDS011;28680;45.642;13.756;2024-01-30T13:50:47;9.80;;;5.60;;
35646;SDS011;28680;45.642;13.756;2024-01-30T13:53:13;10.90;;;5.63;;
35646;SDS011;28680;45.642;13.756;2024-01-30T13:55:39;8.88;;;5.20;;
35646;SDS011;28680;45.642;13.756;2024-01-30T13:58:05;9.27;;;5.57;;
35646;SDS011;28680;45.642;13.756;2024-01-30T14:00:31;9.13;;;5.28;;
35646;SDS011;28680;45.642;13.756;2024-01-30T14:03:07;12.68;;;6.35;;
35646;SDS011;28680;45.642;13.756;2024-01-30T14:05:33;10.13;;;5.82;;
35646;SDS011;28680;45.642;13.756;2024-01-30T14:08:03;11.02;;;5.55;;
35646;SDS011;28680;45.642;13.756;2024-01-30T14:10:33;14.25;;;7.75;;
35646;SDS011;28680;45.642;13.756;2024-01-30T14:13:02;15.25;;;10.30;;
35646;SDS011;28680;45.642;13.756;2024-01-30T14:15:28;13.10;;;8.55;;
35646;SDS011;28680;45.642;13.756;2024-01-30T14:17:54;14.75;;;9.02;;
35646;SDS011;28680;45.642;13.756;2024-01-30T14:20:22;11.43;;;7.82;;
35646;SDS011;28680;45.642;13.756;2024-01-30T14:22:48;11.02;;;6.22;;
35646;SDS011;28680;45.642;13.756;2024-01-30T14:25:14;9.00;;;5.82;;
35646;SDS011;28680;45.642;13.756;2024-01-30T14:27:41;15.38;;;9.18;;
35646;SDS011;28680;45.642;13.756;2024-01-30T14:30:09;17.00;;;11.23;;
35646;SDS011;28680;45.642;13.756;2024-01-30T14:32:36;17.77;;;11.00;;
35646;SDS011;28680;45.642;13.756;2024-01-30T14:35:03;11.98;;;7.55;;
35646;SDS011;28680;45.642;13.756;2024-01-30T14:37:30;11.60;;;5.88;;
35646;SDS011;28680;45.642;13.756;2024-01-30T14:39:56;12.68;;;5.70;;
35646;SDS011;28680;45.642;13.756;2024-01-30T14:42:21;13.13;;;5.93;;
35646;SDS011;28680;45.642;13.756;2024-01-30T14:44:47;12.45;;;5.75;;
35646;SDS011;28680;45.642;13.756;2024-01-30T14:47:14;17.55;;;7.07;;
35646;SDS011;28680;45.642;13.756;2024-01-30T14:49:40;16.83;;;7.78;;